sensor_id;sensor_type;location;lat;lon;timestamp;pressure;altitude;pressure_sealevel;temperature;humidity
54417;BME280;40326;51.220;7.250;2022-07-24T00:01:59;98920.59;;;13.29;100.00
54417;BME280;40326;51.220;7.250;2022-07-24T00:04:25;98909.75;;;13.24;100.00
54417;BME280;40326;51.220;7.250;2022-07-24T00:06:50;98907.09;;;13.25;100.00
54417;BME280;40326;51.220;7.250;2022-07-24T00:09:16;98899.47;;;13.24;100.00
54417;BME280;40326;51.220;7.250;2022-07-24T00:11:41;98902.03;;;13.24;100.00
54417;BME280;40326;51.220;7.250;2022-07-24T00:14:07;98903.59;;;13.26;100.00
54417;BME280;40326;51.220;7.250;2022-07-24T00:16:32;98896.47;;;13.31;100.00
54417;BME280;40326;51.220;7.250;2022-07-24T00:18:58;98896.13;;;13.38;100.00
54417;BME280;40326;51.220;7.250;2022-07-24T00:21:23;98900.38;;;13.39;100.00
54417;BME280;40326;51.220;7.250;2022-07-24T00:23:48;98900.44;;;13.37;100.00
54417;BME280;40326;51.220;7.250;2022-07-24T00:26:14;98894.16;;;13.43;100.00
54417;BME280;40326;51.220;7.250;2022-07-24T00:28:39;98895.59;;;13.48;100.00
54417;BME280;40326;51.220;7.250;2022-07-24T00:31:05;98892.53;;;13.57;100.00
54417;BME280;40326;51.220;7.250;2022-07-24T00:33:30;98889.19;;;13.71;100.00
54417;BME280;40326;51.220;7.250;2022-07-24T00:35:56;98883.53;;;13.96;100.00
54417;BME280;40326;51.220;7.250;2022-07-24T00:38:21;98864.31;;;14.02;100.00
54417;BME280;40326;51.220;7.250;2022-07-24T00:40:46;98849.56;;;14.19;100.00
54417;BME280;40326;51.220;7.250;2022-07-24T00:43:12;98846.94;;;14.35;100.00
54417;BME280;40326;51.220;7.250;2022-07-24T00:45:38;98831.72;;;14.46;100.00
54417;BME280;40326;51.220;7.250;2022-07-24T00:48:04;98819.78;;;14.74;100.00
54417;BME280;40326;51.220;7.250;2022-07-24T00:50:30;98810.28;;;15.03;100.00
54417;BME280;40326;51.220;7.250;2022-07-24T00:52:55;98797.28;;;15.19;100.00
54417;BME280;40326;51.220;7.250;2022-07-24T00:55:21;98791.38;;;15.17;100.00
54417;BME280;40326;51.220;7.250;2022-07-24T00:57:46;98782.19;;;15.13;100.00
54417;BME280;40326;51.220;7.250;2022-07-24T01:00:15;98777.03;;;15.40;100.00
54417;BME280;40326;51.220;7.250;2022-07-24T01:02:42;98788.97;;;15.28;100.00
54417;BME280;40326;51.220;7.250;2022-07-24T01:05:09;98781.03;;;15.31;100.00
54417;BME280;40326;51.220;7.250;2022-07-24T01:07:34;98777.16;;;15.38;100.00
54417;BME280;40326;51.220;7.250;2022-07-24T01:10:00;98772.50;;;15.43;100.00
54417;BME280;40326;51.220;7.250;2022-07-24T01:12:25;98768.81;;;15.47;100.00
54417;BME280;40326;51.220;7.250;2022-07-24T01:14:52;98775.97;;;15.56;100.00
54417;BME280;40326;51.220;7.250;2022-07-24T01:17:17;98765.53;;;15.58;100.00
54417;BME280;40326;51.220;7.250;2022-07-24T01:19:43;98766.38;;;15.58;100.00
54417;BME280;40326;51.220;7.250;2022-07-24T01:22:08;98774.16;;;15.44;100.00
54417;BME280;40326;51.220;7.250;2022-07-24T01:24:33;98782.78;;;15.30;100.00
54417;BME280;40326;51.220;7.250;2022-07-24T01:26:59;98789.97;;;15.25;100.00
54417;BME280;40326;51.220;7.250;2022-07-24T01:29:24;98783.25;;;15.23;100.00
54417;BME280;40326;51.220;7.250;2022-07-24T01:31:49;98791.19;;;15.20;100.00
54417;BME280;40326;51.220;7.250;2022-07-24T01:34:15;98788.06;;;15.15;100.00
54417;BME280;40326;51.220;7.250;2022-07-24T01:36:40;98791.00;;;15.09;100.00
54417;BME280;40326;51.220;7.250;2022-07-24T01:39:06;98786.97;;;15.04;100.00
54417;BME280;40326;51.220;7.250;2022-07-24T01:41:31;98795.66;;;15.03;100.00
54417;BME280;40326;51.220;7.250;2022-07-24T01:43:57;98784.41;;;15.04;100.00
54417;BME280;40326;51.220;7.250;2022-07-24T01:46:22;98787.34;;;15.13;100.00
54417;BME280;40326;51.220;7.250;2022-07-24T01:48:47;98774.94;;;15.32;100.00
54417;BME280;40326;51.220;7.250;2022-07-24T01:51:13;98782.19;;;15.40;100.00
54417;BME280;40326;51.220;7.250;2022-07-24T01:53:38;98772.72;;;15.40;100.00
54417;BME280;40326;51.220;7.250;2022-07-24T01:56:04;98766.72;;;15.40;100.00
54417;BME280;40326;51.220;7.250;2022-07-24T01:58:29;98763.84;;;15.44;100.00
54417;BME280;40326;51.220;7.250;2022-07-24T02:00:54;98765.50;;;15.45;100.00
54417;BME280;40326;51.220;7.250;2022-07-24T02:03:20;98769.09;;;15.43;100.00
54417;BME280;40326;51.220;7.250;2022-07-24T02:05:46;98759.81;;;15.40;100.00
54417;BME280;40326;51.220;7.250;2022-07-24T02:08:12;98763.31;;;15.39;100.00
54417;BME280;40326;51.220;7.250;2022-07-24T02:10:38;98762.59;;;15.37;100.00
54417;BME280;40326;51.220;7.250;2022-07-24T02:13:03;98757.22;;;15.40;100.00
54417;BME280;40326;51.220;7.250;2022-07-24T02:15:30;98758.34;;;15.36;100.00
54417;BME280;40326;51.220;7.250;2022-07-24T02:17:57;98760.44;;;15.44;100.00
54417;BME280;40326;51.220;7.250;2022-07-24T02:20:23;98764.03;;;15.41;100.00
54417;BME280;40326;51.220;7.250;2022-07-24T02:22:49;98764.97;;;15.40;100.00
54417;BME280;40326;51.220;7.250;2022-07-24T02:25:15;98760.59;;;15.55;100.00
54417;BME280;40326;51.220;7.250;2022-07-24T02:27:41;98758.69;;;15.44;100.00
54417;BME280;40326;51.220;7.250;2022-07-24T02:30:10;98758.09;;;15.53;100.00
54417;BME280;40326;51.220;7.250;2022-07-24T02:32:36;98754.75;;;15.66;100.00
54417;BME280;40326;51.220;7.250;2022-07-24T02:35:01;98750.31;;;15.68;100.00
54417;BME280;40326;51.220;7.250;2022-07-24T02:37:26;98744.53;;;15.64;100.00
54417;BME280;40326;51.220;7.250;2022-07-24T02:39:52;98742.69;;;15.66;100.00
54417;BME280;40326;51.220;7.250;2022-07-24T02:42:17;98738.81;;;15.59;100.00
54417;BME280;40326;51.220;7.250;2022-07-24T02:44:42;98752.94;;;15.53;100.00
54417;BME280;40326;51.220;7.250;2022-07-24T02:47:08;98747.16;;;15.50;100.00
54417;BME280;40326;51.220;7.250;2022-07-24T02:49:33;98757.38;;;15.51;100.00
54417;BME280;40326;51.220;7.250;2022-07-24T02:52:00;98754.34;;;15.45;100.00
54417;BME280;40326;51.220;7.250;2022-07-24T02:54:26;98742.47;;;15.42;100.00
54417;BME280;40326;51.220;7.250;2022-07-24T02:56:51;98743.94;;;15.46;100.00
54417;BME280;40326;51.220;7.250;2022-07-24T02:59:16;98741.75;;;15.40;100.00
54417;BME280;40326;51.220;7.250;2022-07-24T03:01:42;98743.03;;;15.47;100.00
54417;BME280;40326;51.220;7.250;2022-07-24T03:04:07;98743.94;;;15.46;100.00
54417;BME280;40326;51.220;7.250;2022-07-24T03:06:32;98736.44;;;15.56;100.00
54417;BME280;40326;51.220;7.250;2022-07-24T03:09:00;98735.41;;;15.58;100.00
54417;BME280;40326;51.220;7.250;2022-07-24T03:11:25;98733.09;;;15.68;100.00
54417;BME280;40326;51.220;7.250;2022-07-24T03:13:51;98734.63;;;15.71;100.00
54417;BME280;40326;51.220;7.250;2022-07-24T03:16:16;98731.25;;;15.83;100.00
54417;BME280;40326;51.220;7.250;2022-07-24T03:18:42;98721.34;;;15.89;100.00
54417;BME280;40326;51.220;7.250;2022-07-24T03:21:14;98722.25;;;15.88;100.00
54417;BME280;40326;51.220;7.250;2022-07-24T03:23:40;98723.13;;;16.02;100.00
54417;BME280;40326;51.220;7.250;2022-07-24T03:26:05;98716.91;;;16.04;100.00
54417;BME280;40326;51.220;7.250;2022-07-24T03:28:30;98716.09;;;16.04;100.00
54417;BME280;40326;51.220;7.250;2022-07-24T03:30:56;98725.47;;;16.05;100.00
54417;BME280;40326;51.220;7.250;2022-07-24T03:33:21;98718.78;;;16.02;100.00
54417;BME280;40326;51.220;7.250;2022-07-24T03:35:46;98727.84;;;15.95;100.00
54417;BME280;40326;51.220;7.250;2022-07-24T03:38:12;98726.94;;;15.96;100.00
54417;BME280;40326;51.220;7.250;2022-07-24T03:40:37;98726.31;;;15.93;100.00
54417;BME280;40326;51.220;7.250;2022-07-24T03:43:03;98726.22;;;15.94;100.00
54417;BME280;40326;51.220;7.250;2022-07-24T03:45:28;98729.19;;;15.88;100.00
54417;BME280;40326;51.220;7.250;2022-07-24T03:47:53;98730.00;;;15.88;100.00
54417;BME280;40326;51.220;7.250;2022-07-24T03:50:18;98736.53;;;15.94;100.00
54417;BME280;40326;51.220;7.250;2022-07-24T03:52:44;98736.75;;;15.91;100.00
54417;BME280;40326;51.220;7.250;2022-07-24T03:55:09;98739.63;;;15.99;100.00
54417;BME280;40326;51.220;7.250;2022-07-24T03:57:34;98734.66;;;15.96;100.00
54417;BME280;40326;51.220;7.250;2022-07-24T04:00:00;98735.06;;;15.90;100.00
54417;BME280;40326;51.220;7.250;2022-07-24T04:02:25;98736.53;;;15.94;100.00
54417;BME280;40326;51.220;7.250;2022-07-24T04:04:50;98741.69;;;15.94;100.00
54417;BME280;40326;51.220;7.250;2022-07-24T04:07:16;98743.56;;;15.92;100.00
54417;BME280;40326;51.220;7.250;2022-07-24T04:09:41;98739.34;;;15.91;100.00
54417;BME280;40326;51.220;7.250;2022-07-24T04:12:07;98741.38;;;15.99;100.00
54417;BME280;40326;51.220;7.250;2022-07-24T04:14:32;98737.97;;;15.98;100.00
54417;BME280;40326;51.220;7.250;2022-07-24T04:16:57;98741.50;;;16.10;100.00
54417;BME280;40326;51.220;7.250;2022-07-24T04:19:23;98739.13;;;16.07;100.00
54417;BME280;40326;51.220;7.250;2022-07-24T04:21:49;98733.66;;;16.11;100.00
54417;BME280;40326;51.220;7.250;2022-07-24T04:24:14;98743.88;;;16.13;100.00
54417;BME280;40326;51.220;7.250;2022-07-24T04:26:40;98739.31;;;16.16;100.00
54417;BME280;40326;51.220;7.250;2022-07-24T04:29:05;98741.91;;;16.16;100.00
54417;BME280;40326;51.220;7.250;2022-07-24T04:31:30;98742.13;;;16.13;100.00
54417;BME280;40326;51.220;7.250;2022-07-24T04:33:56;98741.72;;;16.20;100.00
54417;BME280;40326;51.220;7.250;2022-07-24T04:36:22;98741.09;;;16.29;100.00
54417;BME280;40326;51.220;7.250;2022-07-24T04:38:47;98735.31;;;16.38;100.00
54417;BME280;40326;51.220;7.250;2022-07-24T04:41:12;98736.44;;;16.34;100.00
54417;BME280;40326;51.220;7.250;2022-07-24T04:43:38;98729.94;;;16.41;100.00
54417;BME280;40326;51.220;7.250;2022-07-24T04:46:04;98736.34;;;16.48;100.00
54417;BME280;40326;51.220;7.250;2022-07-24T04:48:30;98734.78;;;16.45;100.00
54417;BME280;40326;51.220;7.250;2022-07-24T04:50:56;98734.56;;;16.49;100.00
54417;BME280;40326;51.220;7.250;2022-07-24T04:53:21;98722.66;;;16.59;100.00
54417;BME280;40326;51.220;7.250;2022-07-24T04:55:48;98726.59;;;16.77;100.00
54417;BME280;40326;51.220;7.250;2022-07-24T04:58:13;98722.25;;;16.78;100.00
54417;BME280;40326;51.220;7.250;2022-07-24T05:00:39;98721.19;;;16.80;100.00
54417;BME280;40326;51.220;7.250;2022-07-24T05:03:04;98723.69;;;16.82;100.00
54417;BME280;40326;51.220;7.250;2022-07-24T05:05:29;98723.66;;;16.94;100.00
54417;BME280;40326;51.220;7.250;2022-07-24T05:07:55;98720.25;;;16.94;100.00
54417;BME280;40326;51.220;7.250;2022-07-24T05:10:20;98722.94;;;17.16;100.00
54417;BME280;40326;51.220;7.250;2022-07-24T05:12:45;98720.09;;;17.08;100.00
54417;BME280;40326;51.220;7.250;2022-07-24T05:15:11;98724.00;;;17.14;100.00
54417;BME280;40326;51.220;7.250;2022-07-24T05:17:37;98723.97;;;17.26;100.00
54417;BME280;40326;51.220;7.250;2022-07-24T05:20:04;98720.63;;;17.24;100.00
54417;BME280;40326;51.220;7.250;2022-07-24T05:22:30;98709.94;;;17.53;100.00
54417;BME280;40326;51.220;7.250;2022-07-24T05:24:55;98711.22;;;17.47;100.00
54417;BME280;40326;51.220;7.250;2022-07-24T05:27:21;98709.00;;;17.54;100.00
54417;BME280;40326;51.220;7.250;2022-07-24T05:29:47;98703.84;;;17.65;100.00
54417;BME280;40326;51.220;7.250;2022-07-24T05:32:12;98698.44;;;17.68;100.00
54417;BME280;40326;51.220;7.250;2022-07-24T05:34:38;98712.75;;;17.74;100.00
54417;BME280;40326;51.220;7.250;2022-07-24T05:37:03;98707.25;;;17.90;100.00
54417;BME280;40326;51.220;7.250;2022-07-24T05:39:29;98709.53;;;18.17;100.00
54417;BME280;40326;51.220;7.250;2022-07-24T05:41:54;98707.06;;;18.49;100.00
54417;BME280;40326;51.220;7.250;2022-07-24T05:44:19;98683.41;;;19.40;100.00
54417;BME280;40326;51.220;7.250;2022-07-24T05:46:45;98675.97;;;19.88;100.00
54417;BME280;40326;51.220;7.250;2022-07-24T05:49:10;98674.00;;;20.32;100.00
54417;BME280;40326;51.220;7.250;2022-07-24T05:51:36;98663.16;;;20.27;100.00
54417;BME280;40326;51.220;7.250;2022-07-24T05:54:01;98668.47;;;20.16;100.00
54417;BME280;40326;51.220;7.250;2022-07-24T05:56:28;98661.88;;;20.42;100.00
54417;BME280;40326;51.220;7.250;2022-07-24T05:58:53;98672.63;;;20.28;100.00
54417;BME280;40326;51.220;7.250;2022-07-24T06:01:19;98673.19;;;20.31;100.00
54417;BME280;40326;51.220;7.250;2022-07-24T06:03:44;98675.69;;;20.42;100.00
54417;BME280;40326;51.220;7.250;2022-07-24T06:06:09;98676.78;;;20.40;100.00
54417;BME280;40326;51.220;7.250;2022-07-24T06:08:34;98670.09;;;20.97;100.00
54417;BME280;40326;51.220;7.250;2022-07-24T06:11:00;98672.59;;;21.28;100.00
54417;BME280;40326;51.220;7.250;2022-07-24T06:13:25;98665.75;;;21.46;100.00
54417;BME280;40326;51.220;7.250;2022-07-24T06:15:51;98656.63;;;21.89;100.00
54417;BME280;40326;51.220;7.250;2022-07-24T06:18:16;98660.28;;;21.49;100.00
54417;BME280;40326;51.220;7.250;2022-07-24T06:20:41;98655.16;;;21.76;100.00
54417;BME280;40326;51.220;7.250;2022-07-24T06:23:07;98654.66;;;22.00;100.00
54417;BME280;40326;51.220;7.250;2022-07-24T06:25:32;98655.69;;;22.27;100.00
54417;BME280;40326;51.220;7.250;2022-07-24T06:27:57;98649.16;;;22.68;100.00
54417;BME280;40326;51.220;7.250;2022-07-24T06:30:25;98645.81;;;22.30;100.00
54417;BME280;40326;51.220;7.250;2022-07-24T06:32:57;98648.72;;;22.45;100.00
54417;BME280;40326;51.220;7.250;2022-07-24T06:35:24;98646.72;;;22.12;100.00
54417;BME280;40326;51.220;7.250;2022-07-24T06:37:50;98640.50;;;22.95;100.00
54417;BME280;40326;51.220;7.250;2022-07-24T06:40:16;98641.91;;;23.07;100.00
54417;BME280;40326;51.220;7.250;2022-07-24T06:42:43;98639.00;;;22.92;100.00
54417;BME280;40326;51.220;7.250;2022-07-24T06:45:09;98636.88;;;23.49;100.00
54417;BME280;40326;51.220;7.250;2022-07-24T06:47:34;98634.06;;;23.07;100.00
54417;BME280;40326;51.220;7.250;2022-07-24T06:49:59;98634.69;;;23.89;100.00
54417;BME280;40326;51.220;7.250;2022-07-24T06:52:25;98632.25;;;23.43;100.00
54417;BME280;40326;51.220;7.250;2022-07-24T06:54:50;98633.59;;;23.47;100.00
54417;BME280;40326;51.220;7.250;2022-07-24T06:57:16;98631.19;;;23.54;100.00
54417;BME280;40326;51.220;7.250;2022-07-24T06:59:43;98635.84;;;23.86;100.00
54417;BME280;40326;51.220;7.250;2022-07-24T07:02:08;98633.34;;;23.59;100.00
54417;BME280;40326;51.220;7.250;2022-07-24T07:04:34;98641.06;;;24.46;100.00
54417;BME280;40326;51.220;7.250;2022-07-24T07:06:59;98645.78;;;24.09;100.00
54417;BME280;40326;51.220;7.250;2022-07-24T07:09:24;98642.31;;;23.74;100.00
54417;BME280;40326;51.220;7.250;2022-07-24T07:11:50;98639.31;;;23.69;100.00
54417;BME280;40326;51.220;7.250;2022-07-24T07:14:15;98640.34;;;23.76;100.00
54417;BME280;40326;51.220;7.250;2022-07-24T07:16:41;98646.28;;;23.86;100.00
54417;BME280;40326;51.220;7.250;2022-07-24T07:19:06;98642.00;;;23.77;100.00
54417;BME280;40326;51.220;7.250;2022-07-24T07:21:31;98640.56;;;23.83;100.00
54417;BME280;40326;51.220;7.250;2022-07-24T07:23:57;98645.66;;;24.18;100.00
54417;BME280;40326;51.220;7.250;2022-07-24T07:26:22;98643.47;;;24.05;100.00
54417;BME280;40326;51.220;7.250;2022-07-24T07:28:48;98643.69;;;24.20;100.00
54417;BME280;40326;51.220;7.250;2022-07-24T07:31:13;98643.88;;;24.69;100.00
54417;BME280;40326;51.220;7.250;2022-07-24T07:33:39;98645.13;;;24.15;100.00
54417;BME280;40326;51.220;7.250;2022-07-24T07:36:05;98653.97;;;24.48;100.00
54417;BME280;40326;51.220;7.250;2022-07-24T07:38:30;98645.53;;;24.70;100.00
54417;BME280;40326;51.220;7.250;2022-07-24T07:40:55;98651.78;;;24.35;100.00
54417;BME280;40326;51.220;7.250;2022-07-24T07:43:21;98650.50;;;24.39;100.00
54417;BME280;40326;51.220;7.250;2022-07-24T07:45:49;98651.81;;;24.09;100.00
54417;BME280;40326;51.220;7.250;2022-07-24T07:48:15;98656.41;;;24.15;100.00
54417;BME280;40326;51.220;7.250;2022-07-24T07:50:41;98647.69;;;24.32;100.00
54417;BME280;40326;51.220;7.250;2022-07-24T07:53:06;98645.72;;;24.77;100.00
54417;BME280;40326;51.220;7.250;2022-07-24T07:55:33;98647.38;;;24.86;100.00
54417;BME280;40326;51.220;7.250;2022-07-24T07:57:58;98644.16;;;25.41;100.00
54417;BME280;40326;51.220;7.250;2022-07-24T08:00:24;98647.28;;;25.20;100.00
54417;BME280;40326;51.220;7.250;2022-07-24T08:02:49;98650.72;;;25.37;100.00
54417;BME280;40326;51.220;7.250;2022-07-24T08:05:15;98649.72;;;25.79;100.00
54417;BME280;40326;51.220;7.250;2022-07-24T08:07:40;98652.13;;;25.96;100.00
54417;BME280;40326;51.220;7.250;2022-07-24T08:10:06;98648.41;;;25.34;100.00
54417;BME280;40326;51.220;7.250;2022-07-24T08:12:31;98646.63;;;25.42;100.00
54417;BME280;40326;51.220;7.250;2022-07-24T08:14:57;98647.47;;;25.27;100.00
54417;BME280;40326;51.220;7.250;2022-07-24T08:17:22;98648.47;;;24.67;100.00
54417;BME280;40326;51.220;7.250;2022-07-24T08:19:47;98642.88;;;25.45;100.00
54417;BME280;40326;51.220;7.250;2022-07-24T08:22:13;98642.88;;;25.21;100.00
54417;BME280;40326;51.220;7.250;2022-07-24T08:24:38;98644.50;;;25.62;100.00
54417;BME280;40326;51.220;7.250;2022-07-24T08:27:04;98654.81;;;26.36;100.00
54417;BME280;40326;51.220;7.250;2022-07-24T08:29:30;98647.06;;;25.95;100.00
54417;BME280;40326;51.220;7.250;2022-07-24T08:31:55;98645.16;;;25.32;100.00
54417;BME280;40326;51.220;7.250;2022-07-24T08:34:21;98652.25;;;24.65;100.00
54417;BME280;40326;51.220;7.250;2022-07-24T08:36:46;98643.34;;;25.16;100.00
54417;BME280;40326;51.220;7.250;2022-07-24T08:39:12;98645.50;;;25.53;100.00
54417;BME280;40326;51.220;7.250;2022-07-24T08:41:38;98647.78;;;25.40;100.00
54417;BME280;40326;51.220;7.250;2022-07-24T08:44:04;98652.69;;;25.75;100.00
54417;BME280;40326;51.220;7.250;2022-07-24T08:46:31;98638.63;;;25.44;100.00
54417;BME280;40326;51.220;7.250;2022-07-24T08:48:57;98645.03;;;26.13;100.00
54417;BME280;40326;51.220;7.250;2022-07-24T08:51:29;98639.84;;;25.97;100.00
54417;BME280;40326;51.220;7.250;2022-07-24T08:53:58;98638.00;;;26.06;100.00
54417;BME280;40326;51.220;7.250;2022-07-24T08:56:23;98641.47;;;26.06;100.00
54417;BME280;40326;51.220;7.250;2022-07-24T08:58:49;98637.72;;;26.48;100.00
54417;BME280;40326;51.220;7.250;2022-07-24T09:01:15;98632.28;;;26.02;100.00
54417;BME280;40326;51.220;7.250;2022-07-24T09:03:41;98635.56;;;26.04;100.00
54417;BME280;40326;51.220;7.250;2022-07-24T09:06:07;98635.94;;;26.32;100.00
54417;BME280;40326;51.220;7.250;2022-07-24T09:08:33;98635.91;;;27.02;100.00
54417;BME280;40326;51.220;7.250;2022-07-24T09:11:00;98631.47;;;26.49;100.00
54417;BME280;40326;51.220;7.250;2022-07-24T09:13:28;98637.03;;;26.54;100.00
54417;BME280;40326;51.220;7.250;2022-07-24T09:16:18;98629.56;;;26.97;100.00
54417;BME280;40326;51.220;7.250;2022-07-24T09:18:51;98634.91;;;26.80;100.00
54417;BME280;40326;51.220;7.250;2022-07-24T09:21:26;98615.47;;;27.35;100.00
54417;BME280;40326;51.220;7.250;2022-07-24T09:23:51;98620.16;;;27.25;100.00
54417;BME280;40326;51.220;7.250;2022-07-24T09:26:17;98620.28;;;26.55;100.00
54417;BME280;40326;51.220;7.250;2022-07-24T09:28:51;98611.41;;;26.87;100.00
54417;BME280;40326;51.220;7.250;2022-07-24T09:31:17;98616.88;;;27.00;100.00
54417;BME280;40326;51.220;7.250;2022-07-24T09:33:42;98612.59;;;27.07;100.00
54417;BME280;40326;51.220;7.250;2022-07-24T09:36:17;98614.69;;;27.12;100.00
54417;BME280;40326;51.220;7.250;2022-07-24T09:38:50;98610.50;;;26.95;100.00
54417;BME280;40326;51.220;7.250;2022-07-24T09:41:20;98601.09;;;26.77;100.00
54417;BME280;40326;51.220;7.250;2022-07-24T09:43:56;98609.41;;;26.27;100.00
54417;BME280;40326;51.220;7.250;2022-07-24T09:46:24;98597.44;;;26.64;100.00
54417;BME280;40326;51.220;7.250;2022-07-24T09:48:51;98610.06;;;27.52;100.00
54417;BME280;40326;51.220;7.250;2022-07-24T09:51:18;98604.91;;;27.21;100.00
54417;BME280;40326;51.220;7.250;2022-07-24T09:53:45;98603.63;;;26.94;100.00
54417;BME280;40326;51.220;7.250;2022-07-24T09:56:14;98599.00;;;26.96;100.00
54417;BME280;40326;51.220;7.250;2022-07-24T09:58:49;98596.78;;;26.84;100.00
54417;BME280;40326;51.220;7.250;2022-07-24T10:01:19;98594.88;;;27.24;100.00
54417;BME280;40326;51.220;7.250;2022-07-24T10:03:46;98599.81;;;26.73;100.00
54417;BME280;40326;51.220;7.250;2022-07-24T10:06:14;98598.66;;;27.22;100.00
54417;BME280;40326;51.220;7.250;2022-07-24T10:08:42;98590.84;;;26.91;100.00
54417;BME280;40326;51.220;7.250;2022-07-24T10:11:09;98599.59;;;26.83;100.00
54417;BME280;40326;51.220;7.250;2022-07-24T10:13:35;98588.13;;;27.44;100.00
54417;BME280;40326;51.220;7.250;2022-07-24T10:16:22;98577.63;;;27.74;100.00
54417;BME280;40326;51.220;7.250;2022-07-24T10:18:58;98582.88;;;28.04;100.00
54417;BME280;40326;51.220;7.250;2022-07-24T10:26:44;98576.63;;;27.08;100.00
54417;BME280;40326;51.220;7.250;2022-07-24T10:29:15;98584.84;;;26.51;100.00
54417;BME280;40326;51.220;7.250;2022-07-24T10:31:42;98579.34;;;27.14;100.00
54417;BME280;40326;51.220;7.250;2022-07-24T10:37:45;98578.31;;;27.38;100.00
54417;BME280;40326;51.220;7.250;2022-07-24T10:45:35;98563.19;;;27.03;100.00
54417;BME280;40326;51.220;7.250;2022-07-24T10:56:26;98562.63;;;27.45;95.77
54417;BME280;40326;51.220;7.250;2022-07-24T11:01:35;98554.50;;;27.99;100.00
54417;BME280;40326;51.220;7.250;2022-07-24T11:09:17;98548.34;;;28.28;100.00
54417;BME280;40326;51.220;7.250;2022-07-24T11:12:03;98552.69;;;27.99;93.83
54417;BME280;40326;51.220;7.250;2022-07-24T11:20:15;98548.97;;;27.79;100.00
54417;BME280;40326;51.220;7.250;2022-07-24T11:22:53;98542.53;;;27.82;90.73
54417;BME280;40326;51.220;7.250;2022-07-24T11:25:27;98533.34;;;28.65;93.14
54417;BME280;40326;51.220;7.250;2022-07-24T11:28:27;98540.25;;;28.66;86.08
54417;BME280;40326;51.220;7.250;2022-07-24T11:30:46;98538.31;;;28.32;70.37
54417;BME280;40326;51.220;7.250;2022-07-24T11:33:17;98536.19;;;28.27;74.91
54417;BME280;40326;51.220;7.250;2022-07-24T11:35:44;98533.78;;;28.47;78.50
54417;BME280;40326;51.220;7.250;2022-07-24T11:38:10;98531.84;;;28.19;88.94
54417;BME280;40326;51.220;7.250;2022-07-24T11:40:36;98534.00;;;28.31;87.53
54417;BME280;40326;51.220;7.250;2022-07-24T11:43:04;98523.31;;;28.32;75.72
54417;BME280;40326;51.220;7.250;2022-07-24T11:45:31;98531.94;;;28.26;83.47
54417;BME280;40326;51.220;7.250;2022-07-24T11:47:57;98521.13;;;28.21;75.18
54417;BME280;40326;51.220;7.250;2022-07-24T11:50:24;98520.78;;;28.24;73.79
54417;BME280;40326;51.220;7.250;2022-07-24T11:52:50;98515.50;;;28.24;74.42
54417;BME280;40326;51.220;7.250;2022-07-24T11:55:21;98520.28;;;27.84;80.82
54417;BME280;40326;51.220;7.250;2022-07-24T11:57:49;98513.41;;;28.98;74.08
54417;BME280;40326;51.220;7.250;2022-07-24T12:00:20;98508.91;;;28.49;81.27
54417;BME280;40326;51.220;7.250;2022-07-24T12:02:50;98504.56;;;29.06;86.40
54417;BME280;40326;51.220;7.250;2022-07-24T12:07:56;98495.47;;;28.87;69.40
54417;BME280;40326;51.220;7.250;2022-07-24T12:10:23;98504.59;;;28.42;75.20
54417;BME280;40326;51.220;7.250;2022-07-24T12:12:51;98496.59;;;28.35;65.14
54417;BME280;40326;51.220;7.250;2022-07-24T12:15:17;98486.28;;;28.83;75.69
54417;BME280;40326;51.220;7.250;2022-07-24T12:18:02;98496.22;;;28.81;69.26
54417;BME280;40326;51.220;7.250;2022-07-24T12:22:54;98494.38;;;28.81;58.05
54417;BME280;40326;51.220;7.250;2022-07-24T12:25:21;98489.38;;;28.87;60.82
54417;BME280;40326;51.220;7.250;2022-07-24T12:27:47;98494.41;;;29.03;66.90
54417;BME280;40326;51.220;7.250;2022-07-24T12:35:24;98486.38;;;29.18;57.70
54417;BME280;40326;51.220;7.250;2022-07-24T12:37:50;98482.34;;;28.72;60.03
54417;BME280;40326;51.220;7.250;2022-07-24T12:40:27;98485.38;;;28.91;57.25
54417;BME280;40326;51.220;7.250;2022-07-24T12:43:01;98477.31;;;29.27;59.21
54417;BME280;40326;51.220;7.250;2022-07-24T12:45:27;98467.06;;;29.45;58.85
54417;BME280;40326;51.220;7.250;2022-07-24T12:51:10;98467.75;;;29.26;65.01
54417;BME280;40326;51.220;7.250;2022-07-24T12:53:42;98469.91;;;29.44;63.66
54417;BME280;40326;51.220;7.250;2022-07-24T12:56:15;98456.28;;;29.05;54.21
54417;BME280;40326;51.220;7.250;2022-07-24T13:01:26;98466.88;;;29.12;63.27
54417;BME280;40326;51.220;7.250;2022-07-24T13:04:01;98464.50;;;29.24;53.23
54417;BME280;40326;51.220;7.250;2022-07-24T13:06:40;98456.38;;;29.53;55.59
54417;BME280;40326;51.220;7.250;2022-07-24T13:09:08;98461.66;;;29.53;54.83
54417;BME280;40326;51.220;7.250;2022-07-24T13:11:35;98444.94;;;29.87;56.02
54417;BME280;40326;51.220;7.250;2022-07-24T13:14:01;98440.56;;;30.28;54.20
54417;BME280;40326;51.220;7.250;2022-07-24T13:16:29;98432.47;;;30.22;55.30
54417;BME280;40326;51.220;7.250;2022-07-24T13:18:55;98422.53;;;30.58;57.50
54417;BME280;40326;51.220;7.250;2022-07-24T13:21:21;98427.41;;;29.73;51.83
54417;BME280;40326;51.220;7.250;2022-07-24T13:23:46;98421.94;;;29.68;57.02
54417;BME280;40326;51.220;7.250;2022-07-24T13:26:12;98420.94;;;29.82;52.84
54417;BME280;40326;51.220;7.250;2022-07-24T13:28:37;98420.66;;;30.18;60.57
54417;BME280;40326;51.220;7.250;2022-07-24T13:31:02;98419.34;;;29.81;56.83
54417;BME280;40326;51.220;7.250;2022-07-24T13:33:30;98412.44;;;29.80;52.51
54417;BME280;40326;51.220;7.250;2022-07-24T13:35:55;98408.28;;;30.12;62.23
54417;BME280;40326;51.220;7.250;2022-07-24T13:38:21;98406.84;;;29.14;58.67
54417;BME280;40326;51.220;7.250;2022-07-24T13:40:46;98411.13;;;29.50;55.88
54417;BME280;40326;51.220;7.250;2022-07-24T13:43:12;98399.13;;;30.15;58.56